createdAt,value
2017-11-24T00:01:30.073Z,3.80
2017-11-24T00:03:56.386Z,4.20
2017-11-24T00:06:29.674Z,4.03
2017-11-24T00:08:55.957Z,4.10
2017-11-24T00:11:22.561Z,4.10
2017-11-24T00:13:48.889Z,3.80
2017-11-24T00:16:15.181Z,4.30
2017-11-24T00:18:42.207Z,3.90
2017-11-24T00:21:08.480Z,5.87
2017-11-24T00:23:34.821Z,3.67
2017-11-24T00:26:01.141Z,4.07
2017-11-24T00:28:27.429Z,4.00
2017-11-24T00:30:53.784Z,3.70
2017-11-24T00:33:20.838Z,3.90
2017-11-24T00:35:47.905Z,4.00
2017-11-24T00:38:14.203Z,3.60
2017-11-24T00:40:41.241Z,4.23
2017-11-24T00:43:07.532Z,3.90
2017-11-24T00:45:34.018Z,3.63
2017-11-24T00:48:01.046Z,3.47
2017-11-24T00:50:27.318Z,3.60
2017-11-24T00:52:53.629Z,3.67
2017-11-24T00:55:20.643Z,4.07
2017-11-24T00:57:47.715Z,3.90
2017-11-24T01:00:14.760Z,3.87
2017-11-24T01:02:41.850Z,4.30
2017-11-24T01:05:08.249Z,4.20
2017-11-24T01:07:35.344Z,4.30
2017-11-24T01:10:01.757Z,3.47
2017-11-24T01:12:28.289Z,3.87
2017-11-24T01:14:54.548Z,3.73
2017-11-24T01:17:20.882Z,3.50
2017-11-24T01:19:47.229Z,3.90
2017-11-24T01:22:13.528Z,4.10
2017-11-24T01:24:39.828Z,3.50
2017-11-24T01:27:06.209Z,4.10
2017-11-24T01:29:32.527Z,3.60
2017-11-24T01:31:58.802Z,3.77
2017-11-24T01:34:25.836Z,3.40
2017-11-24T01:36:52.860Z,3.03
2017-11-24T01:39:19.150Z,4.00
2017-11-24T01:41:45.527Z,3.87
2017-11-24T01:44:11.852Z,4.50
2017-11-24T01:46:38.215Z,3.63
2017-11-24T01:49:05.250Z,3.90
2017-11-24T01:51:33.085Z,3.83
2017-11-24T01:53:59.357Z,3.63
2017-11-24T01:56:26.426Z,4.20
2017-11-24T01:58:52.742Z,3.93
2017-11-24T02:01:19.798Z,3.90
2017-11-24T02:03:46.186Z,4.47
2017-11-24T02:06:12.587Z,3.53
2017-11-24T02:08:38.881Z,4.10
2017-11-24T02:11:05.906Z,4.40
2017-11-24T02:13:33.757Z,3.73
2017-11-24T02:16:00.377Z,3.37
2017-11-24T02:18:26.686Z,3.93
2017-11-24T02:20:52.937Z,3.90
2017-11-24T02:23:19.289Z,4.20
2017-11-24T02:25:45.589Z,4.27
2017-11-24T02:28:11.954Z,4.33
2017-11-24T02:30:38.311Z,6.20
2017-11-24T02:33:05.362Z,4.30
2017-11-24T02:35:32.375Z,4.13
2017-11-24T02:37:58.667Z,4.60
2017-11-24T02:40:24.950Z,4.33
2017-11-24T02:42:51.950Z,4.40
2017-11-24T02:45:18.361Z,3.67
2017-11-24T02:47:44.621Z,3.67
2017-11-24T02:50:10.921Z,3.73
2017-11-24T02:52:37.182Z,3.97
2017-11-24T02:55:03.485Z,4.30
2017-11-24T02:57:29.810Z,4.37
2017-11-24T02:59:56.077Z,3.57
2017-11-24T03:02:22.400Z,4.27
2017-11-24T03:04:48.754Z,5.00
2017-11-24T03:07:15.076Z,3.90
2017-11-24T03:09:41.336Z,4.10
2017-11-24T03:12:08.353Z,4.20
2017-11-24T03:14:34.697Z,4.40
2017-11-24T03:17:00.976Z,4.10
2017-11-24T03:19:27.253Z,3.90
2017-11-24T03:21:53.545Z,3.30
2017-11-24T03:24:19.801Z,4.77
2017-11-24T03:26:46.223Z,4.43
2017-11-24T03:29:12.573Z,4.30
2017-11-24T03:31:39.037Z,4.23
2017-11-24T03:34:05.415Z,3.67
2017-11-24T03:36:31.709Z,3.97
2017-11-24T03:38:58.014Z,4.20
2017-11-24T03:41:25.054Z,3.97
2017-11-24T03:43:52.066Z,4.47
2017-11-24T03:46:18.410Z,4.13
2017-11-24T03:48:46.164Z,3.77
2017-11-24T03:51:12.450Z,4.87
2017-11-24T03:53:38.737Z,4.30
2017-11-24T03:56:05.064Z,3.90
2017-11-24T03:58:31.331Z,3.90
2017-11-24T04:00:58.415Z,3.87
2017-11-24T04:03:24.690Z,4.87
2017-11-24T04:05:51.725Z,3.80
2017-11-24T04:08:18.025Z,4.47
2017-11-24T04:10:44.385Z,4.33
2017-11-24T04:13:10.793Z,4.33
2017-11-24T04:15:37.077Z,4.77
2017-11-24T04:18:03.331Z,4.33
2017-11-24T04:20:29.684Z,4.73
2017-11-24T04:22:55.932Z,3.93
2017-11-24T04:25:22.297Z,4.23
2017-11-24T04:27:49.313Z,4.23
2017-11-24T04:30:15.577Z,4.77
2017-11-24T04:32:41.871Z,4.23
2017-11-24T04:35:08.161Z,4.53
2017-11-24T04:37:34.469Z,4.50
2017-11-24T04:40:00.762Z,5.10
2017-11-24T04:42:27.012Z,4.90
2017-11-24T04:44:54.162Z,4.57
2017-11-24T04:47:21.207Z,4.37
2017-11-24T04:49:48.234Z,6.63
2017-11-24T04:52:14.489Z,4.33
2017-11-24T04:54:41.546Z,3.53
2017-11-24T04:57:07.801Z,4.63
2017-11-24T04:59:34.260Z,4.67
2017-11-24T05:02:00.746Z,4.50
2017-11-24T05:04:27.052Z,4.67
2017-11-24T05:06:54.247Z,4.13
2017-11-24T05:09:20.541Z,4.97
2017-11-24T05:11:47.569Z,4.70
2017-11-24T05:14:13.834Z,4.13
2017-11-24T05:16:40.136Z,4.10
2017-11-24T05:19:07.149Z,4.60
2017-11-24T05:21:33.449Z,4.67
2017-11-24T05:23:59.761Z,4.00
2017-11-24T05:26:26.174Z,3.97
2017-11-24T05:28:53.209Z,5.80
2017-11-24T05:31:20.250Z,4.40
2017-11-24T05:33:46.505Z,4.67
2017-11-24T05:36:13.542Z,4.27
2017-11-24T05:38:40.653Z,4.60
2017-11-24T05:41:06.911Z,4.30
2017-11-24T05:43:33.193Z,4.90
2017-11-24T05:45:59.505Z,4.10
2017-11-24T05:48:25.785Z,4.40
2017-11-24T05:50:52.093Z,5.50
2017-11-24T05:53:18.357Z,4.47
2017-11-24T05:55:44.668Z,4.20
2017-11-24T05:58:10.954Z,5.10
2017-11-24T06:00:37.233Z,4.60
2017-11-24T06:03:03.527Z,4.97
2017-11-24T06:05:29.749Z,4.67
2017-11-24T06:07:56.385Z,4.87
2017-11-24T06:10:22.721Z,4.57
2017-11-24T06:12:49.065Z,5.23
2017-11-24T06:15:15.363Z,4.67
2017-11-24T06:17:41.629Z,4.93
2017-11-24T06:20:07.926Z,4.90
2017-11-24T06:22:34.237Z,5.43
2017-11-24T06:25:01.259Z,5.40
2017-11-24T06:27:27.565Z,5.37
2017-11-24T06:29:53.856Z,5.93
2017-11-24T06:32:20.214Z,5.37
2017-11-24T06:34:46.515Z,6.07
2017-11-24T06:37:12.865Z,11.63
2017-11-24T06:39:39.154Z,6.33
2017-11-24T06:42:06.208Z,5.13
2017-11-24T06:44:33.249Z,6.63
2017-11-24T06:47:00.293Z,5.73
2017-11-24T06:49:27.362Z,6.20
2017-11-24T06:51:53.644Z,5.27
2017-11-24T06:54:19.924Z,5.23
2017-11-24T06:56:46.220Z,6.43
2017-11-24T06:59:13.325Z,7.93
2017-11-24T07:01:39.608Z,15.27
2017-11-24T07:04:06.658Z,19.47
2017-11-24T07:06:32.960Z,5.80
2017-11-24T07:08:59.261Z,5.00
2017-11-24T07:11:25.594Z,5.60
2017-11-24T07:13:51.916Z,5.50
2017-11-24T07:16:18.293Z,6.00
2017-11-24T07:18:44.601Z,5.10
2017-11-24T07:21:10.938Z,5.00
2017-11-24T07:23:37.210Z,5.83
2017-11-24T07:26:04.257Z,5.30
2017-11-24T07:28:31.310Z,5.07
2017-11-24T07:30:57.891Z,4.93
2017-11-24T07:33:24.197Z,5.40
2017-11-24T07:35:50.564Z,5.57
2017-11-24T07:38:16.938Z,5.50
2017-11-24T07:40:43.851Z,6.20
2017-11-24T07:43:10.334Z,5.33
2017-11-24T07:45:36.697Z,5.73
2017-11-24T07:48:02.998Z,5.20
2017-11-24T07:50:31.510Z,6.07
2017-11-24T07:52:57.812Z,6.23
2017-11-24T07:55:24.085Z,6.20
2017-11-24T07:57:50.464Z,5.90
2017-11-24T08:00:16.811Z,5.40
2017-11-24T08:02:43.125Z,5.43
2017-11-24T08:05:09.399Z,4.80
2017-11-24T08:07:36.467Z,5.47
2017-11-24T08:10:03.506Z,5.40
2017-11-24T08:12:29.828Z,4.77
2017-11-24T08:14:56.151Z,5.23
2017-11-24T08:17:22.478Z,6.07
2017-11-24T08:19:48.771Z,5.57
2017-11-24T08:22:15.026Z,5.10
2017-11-24T08:24:41.341Z,6.30
2017-11-24T08:27:07.630Z,5.20
2017-11-24T08:29:34.680Z,5.33
2017-11-24T08:32:01.712Z,6.10
2017-11-24T08:34:28.920Z,4.90
2017-11-24T08:36:55.214Z,4.90
2017-11-24T08:39:22.364Z,4.80
2017-11-24T08:41:48.871Z,4.80
2017-11-24T08:44:15.169Z,5.00
2017-11-24T08:46:47.425Z,5.30
2017-11-24T08:49:19.782Z,5.47
2017-11-24T08:51:46.405Z,4.47
2017-11-24T08:54:12.782Z,4.70
2017-11-24T08:56:39.306Z,4.40
2017-11-24T08:59:05.602Z,4.93
2017-11-24T09:01:31.974Z,4.43
2017-11-24T09:03:58.266Z,4.50
2017-11-24T09:06:24.535Z,4.60
2017-11-24T09:08:52.181Z,5.30
2017-11-24T09:11:18.504Z,4.60
2017-11-24T09:13:44.857Z,3.87
2017-11-24T09:16:11.178Z,5.00
2017-11-24T09:18:37.479Z,4.73
2017-11-24T09:21:03.960Z,5.20
2017-11-24T09:23:30.322Z,4.50
2017-11-24T09:25:57.366Z,4.40
2017-11-24T09:28:24.415Z,4.33
2017-11-24T09:30:51.460Z,4.17
2017-11-24T09:33:18.568Z,4.63
2017-11-24T09:35:51.760Z,5.40
2017-11-24T09:38:18.096Z,4.50
2017-11-24T09:40:44.369Z,4.50
2017-11-24T09:43:11.405Z,4.40
2017-11-24T09:45:37.666Z,3.93
2017-11-24T09:48:03.996Z,3.83
2017-11-24T09:50:30.270Z,3.87
2017-11-24T09:52:56.561Z,4.33
2017-11-24T09:55:22.862Z,3.93
2017-11-24T09:57:49.913Z,4.30
2017-11-24T10:00:16.938Z,3.50
2017-11-24T10:02:43.229Z,3.67
2017-11-24T10:05:09.518Z,3.80
2017-11-24T10:07:36.539Z,4.33
2017-11-24T10:10:02.827Z,3.80
2017-11-24T10:12:29.117Z,4.60
2017-11-24T10:14:56.222Z,4.20
2017-11-24T10:17:22.497Z,4.47
2017-11-24T10:19:49.543Z,4.07
2017-11-24T10:22:22.673Z,4.93
2017-11-24T10:24:48.966Z,4.17
2017-11-24T10:27:16.056Z,5.13
2017-11-24T10:29:42.382Z,4.30
2017-11-24T10:32:08.662Z,4.37
2017-11-24T10:34:35.729Z,4.10
2017-11-24T10:37:02.778Z,4.00
2017-11-24T10:39:29.068Z,5.60
2017-11-24T10:41:55.385Z,3.83
2017-11-24T10:44:21.645Z,5.07
2017-11-24T10:46:47.940Z,3.63
2017-11-24T10:49:14.219Z,4.40
2017-11-24T10:51:41.249Z,4.20
2017-11-24T10:54:08.277Z,4.67
2017-11-24T10:56:34.649Z,3.70
2017-11-24T10:59:00.945Z,3.63
2017-11-24T11:01:27.250Z,4.40
2017-11-24T11:03:53.529Z,3.87
2017-11-24T11:06:20.978Z,3.70
2017-11-24T11:08:48.021Z,3.90
2017-11-24T11:11:15.026Z,4.87
2017-11-24T11:13:41.325Z,3.87
2017-11-24T11:16:07.611Z,3.13
2017-11-24T11:18:35.382Z,3.53
2017-11-24T11:21:03.141Z,3.77
2017-11-24T11:23:29.441Z,3.80
2017-11-24T11:25:55.793Z,4.20
2017-11-24T11:28:22.130Z,3.60
2017-11-24T11:30:49.202Z,3.40
2017-11-24T11:33:16.357Z,3.70
2017-11-24T11:35:43.437Z,3.33
2017-11-24T11:38:09.733Z,3.93
2017-11-24T11:40:36.767Z,4.10
2017-11-24T11:43:03.874Z,4.20
2017-11-24T11:45:31.528Z,4.00
2017-11-24T11:47:57.980Z,3.53
2017-11-24T11:50:24.243Z,3.50
2017-11-24T11:52:51.287Z,4.03
2017-11-24T11:55:18.285Z,4.00
2017-11-24T11:57:44.793Z,2.70
2017-11-24T12:00:11.201Z,3.40
2017-11-24T12:02:38.478Z,3.70
2017-11-24T12:05:04.802Z,5.10
2017-11-24T12:07:31.141Z,3.20
2017-11-24T12:09:57.561Z,4.33
2017-11-24T12:12:24.628Z,3.60
2017-11-24T12:14:50.952Z,3.80
2017-11-24T12:17:17.251Z,4.10
2017-11-24T12:19:44.323Z,3.47
2017-11-24T12:22:11.006Z,4.70
2017-11-24T12:24:37.297Z,3.67
2017-11-24T12:27:03.622Z,3.33
2017-11-24T12:29:29.905Z,4.10
2017-11-24T12:31:56.287Z,4.27
2017-11-24T12:34:22.591Z,3.33
2017-11-24T12:36:49.719Z,3.50
2017-11-24T12:39:16.053Z,4.00
2017-11-24T12:41:42.356Z,4.23
2017-11-24T12:44:08.709Z,3.77
2017-11-24T12:46:34.999Z,4.03
2017-11-24T12:49:01.297Z,3.53
2017-11-24T12:51:28.312Z,3.40
2017-11-24T12:53:54.730Z,6.37
2017-11-24T12:56:21.047Z,3.97
2017-11-24T12:58:47.344Z,4.07
2017-11-24T13:01:14.451Z,4.07
2017-11-24T13:03:40.766Z,3.87
2017-11-24T13:06:07.077Z,4.27
2017-11-24T13:08:33.408Z,4.13
2017-11-24T13:10:59.709Z,4.20
2017-11-24T13:13:26.012Z,4.13
2017-11-24T13:15:52.349Z,4.37
2017-11-24T13:18:18.674Z,4.00
2017-11-24T13:20:45.595Z,4.57
2017-11-24T13:23:11.874Z,4.27
2017-11-24T13:25:38.919Z,4.20
2017-11-24T13:28:05.949Z,4.00
2017-11-24T13:30:33.013Z,3.60
2017-11-24T13:33:00.045Z,3.80
2017-11-24T13:35:27.089Z,3.80
2017-11-24T13:37:54.309Z,3.73
2017-11-24T13:40:20.598Z,5.10
2017-11-24T13:42:46.913Z,4.30
2017-11-24T13:45:14.289Z,3.13
2017-11-24T13:47:40.795Z,3.97
2017-11-24T13:50:07.190Z,3.50
2017-11-24T13:52:33.501Z,3.80
2017-11-24T13:54:59.785Z,3.70
2017-11-24T13:57:26.290Z,4.50
2017-11-24T13:59:52.676Z,4.43
2017-11-24T14:02:18.990Z,3.83
2017-11-24T14:04:46.084Z,5.00
2017-11-24T14:07:12.429Z,3.77
2017-11-24T14:09:38.756Z,5.20
2017-11-24T14:12:05.050Z,4.23
2017-11-24T14:14:31.335Z,4.30
2017-11-24T14:16:57.633Z,4.00
2017-11-24T14:19:24.130Z,4.77
2017-11-24T14:21:51.359Z,5.00
2017-11-24T14:24:18.431Z,4.13
2017-11-24T14:26:44.741Z,5.03
2017-11-24T14:29:11.022Z,5.20
2017-11-24T14:31:37.332Z,4.90
2017-11-24T14:34:03.632Z,6.10
2017-11-24T14:36:30.688Z,5.17
2017-11-24T14:38:57.677Z,4.83
2017-11-24T14:41:24.038Z,5.80
2017-11-24T14:43:50.429Z,6.00
2017-11-24T14:46:16.762Z,5.10
2017-11-24T14:48:43.046Z,5.60
2017-11-24T14:51:10.110Z,5.80
2017-11-24T14:53:37.169Z,5.43
2017-11-24T14:56:03.470Z,5.90
2017-11-24T14:58:30.551Z,4.90
2017-11-24T15:00:56.833Z,5.20
2017-11-24T15:03:23.138Z,4.63
2017-11-24T15:05:49.429Z,3.50
2017-11-24T15:08:15.729Z,2.93
2017-11-24T15:10:42.019Z,2.30
2017-11-24T15:13:08.341Z,2.30
2017-11-24T15:15:34.648Z,1.60
2017-11-24T15:18:00.938Z,1.10
2017-11-24T15:20:27.237Z,1.10
2017-11-24T15:22:53.550Z,0.80
2017-11-24T15:25:20.111Z,0.90
2017-11-24T15:27:46.445Z,1.13
2017-11-24T15:30:12.792Z,1.00
2017-11-24T15:32:39.079Z,1.00
2017-11-24T15:35:05.380Z,1.00
2017-11-24T15:37:32.446Z,1.00
2017-11-24T15:39:58.897Z,0.90
2017-11-24T15:42:25.197Z,1.00
2017-11-24T15:44:52.329Z,1.10
2017-11-24T15:47:18.753Z,1.50
2017-11-24T15:49:45.076Z,1.40
2017-11-24T15:52:12.866Z,1.20
2017-11-24T15:54:39.897Z,1.40
2017-11-24T15:57:06.209Z,1.40
2017-11-24T15:59:32.533Z,1.10
2017-11-24T16:01:58.800Z,1.17
2017-11-24T16:04:25.882Z,1.20
2017-11-24T16:06:52.221Z,1.40
2017-11-24T16:09:18.480Z,2.27
2017-11-24T16:11:44.798Z,1.47
2017-11-24T16:14:11.173Z,1.50
2017-11-24T16:16:38.251Z,1.37
2017-11-24T16:19:04.693Z,1.63
2017-11-24T16:21:31.034Z,1.27
2017-11-24T16:23:57.356Z,1.50
2017-11-24T16:26:23.658Z,1.27
2017-11-24T16:28:50.166Z,1.33
2017-11-24T16:31:17.218Z,2.07
2017-11-24T16:33:44.273Z,1.80
2017-11-24T16:36:11.319Z,1.53
2017-11-24T16:38:38.388Z,1.20
2017-11-24T16:41:04.623Z,1.43
2017-11-24T16:43:30.953Z,1.30
2017-11-24T16:45:57.243Z,1.20
2017-11-24T16:48:23.492Z,1.63
2017-11-24T16:50:50.557Z,1.30
2017-11-24T16:53:16.870Z,1.83
2017-11-24T16:55:43.191Z,1.23
2017-11-24T16:58:10.241Z,1.50
2017-11-24T17:00:37.285Z,2.60
2017-11-24T17:03:04.384Z,1.80
2017-11-24T17:05:30.802Z,1.73
2017-11-24T17:07:57.105Z,1.90
2017-11-24T17:10:24.204Z,1.80
2017-11-24T17:12:50.642Z,2.00
2017-11-24T17:15:16.982Z,2.47
2017-11-24T17:17:43.285Z,2.30
2017-11-24T17:20:10.441Z,2.23
2017-11-24T17:22:36.758Z,2.30
2017-11-24T17:25:03.112Z,2.47
2017-11-24T17:27:30.314Z,2.10
2017-11-24T17:29:56.666Z,2.80
2017-11-24T17:32:22.982Z,2.73
2017-11-24T17:34:49.301Z,2.37
2017-11-24T17:37:15.633Z,2.93
2017-11-24T17:39:42.157Z,2.90
2017-11-24T17:42:09.286Z,3.07
2017-11-24T17:44:35.619Z,3.60
2017-11-24T17:47:02.230Z,3.27
2017-11-24T17:49:28.557Z,3.53
2017-11-24T17:51:54.878Z,3.50
2017-11-24T17:54:21.173Z,3.50
2017-11-24T17:56:48.272Z,3.90
2017-11-24T17:59:14.738Z,4.77
2017-11-24T18:01:42.427Z,4.67
2017-11-24T18:04:08.853Z,4.70
2017-11-24T18:06:35.160Z,5.00
2017-11-24T18:09:02.306Z,5.17
2017-11-24T18:11:28.667Z,5.10
2017-11-24T18:13:55.013Z,4.33
2017-11-24T18:16:21.293Z,5.43
2017-11-24T18:18:48.364Z,5.77
2017-11-24T18:21:15.398Z,7.00
2017-11-24T18:23:42.550Z,6.27
2017-11-24T18:26:08.880Z,6.50
2017-11-24T18:28:35.174Z,7.13
2017-11-24T18:31:01.494Z,6.80
2017-11-24T18:33:27.829Z,6.80
2017-11-24T18:35:54.110Z,7.67
2017-11-24T18:38:21.171Z,7.17
2017-11-24T18:40:47.487Z,7.30
2017-11-24T18:43:14.550Z,8.03
2017-11-24T18:45:40.881Z,7.80
2017-11-24T18:48:07.217Z,8.63
2017-11-24T18:50:33.670Z,7.57
2017-11-24T18:53:00.060Z,7.80
2017-11-24T18:55:27.238Z,8.27
2017-11-24T18:57:53.566Z,10.10
2017-11-24T19:00:19.866Z,9.57
2017-11-24T19:02:46.934Z,8.80
2017-11-24T19:05:13.281Z,11.60
2017-11-24T19:07:39.612Z,13.10
2017-11-24T19:10:05.994Z,12.40
2017-11-24T19:12:32.301Z,11.10
2017-11-24T19:14:58.613Z,10.30
2017-11-24T19:17:24.942Z,10.50
2017-11-24T19:19:51.730Z,10.10
2017-11-24T19:22:18.081Z,7.80
2017-11-24T19:24:44.399Z,8.90
2017-11-24T19:27:11.483Z,8.93
2017-11-24T19:29:37.789Z,12.60
2017-11-24T19:32:04.109Z,12.77
2017-11-24T19:34:31.209Z,13.00
2017-11-24T19:36:57.542Z,11.50
2017-11-24T19:39:23.871Z,12.37
2017-11-24T19:41:50.362Z,14.30
2017-11-24T19:44:16.701Z,16.03
2017-11-24T19:46:43.030Z,14.20
2017-11-24T19:49:09.367Z,13.37
2017-11-24T19:51:35.671Z,14.03
2017-11-24T19:54:02.761Z,13.07
2017-11-24T19:56:29.071Z,13.70
2017-11-24T19:58:55.435Z,14.40
2017-11-24T20:01:21.764Z,14.80
2017-11-24T20:03:48.171Z,15.40
2017-11-24T20:06:14.479Z,13.63
2017-11-24T20:08:41.769Z,15.00
2017-11-24T20:11:08.095Z,16.30
2017-11-24T20:13:34.389Z,14.57
2017-11-24T20:16:01.476Z,14.00
2017-11-24T20:18:27.830Z,15.33
2017-11-24T20:20:54.242Z,16.93
2017-11-24T20:23:20.562Z,16.50
2017-11-24T20:25:46.846Z,16.40
2017-11-24T20:28:13.905Z,15.40
2017-11-24T20:30:40.967Z,15.47
2017-11-24T20:33:07.354Z,14.30
2017-11-24T20:35:33.681Z,15.70
2017-11-24T20:38:00.872Z,14.90
2017-11-24T20:40:27.228Z,12.93
2017-11-24T20:42:53.544Z,15.90
2017-11-24T20:45:19.881Z,16.03
2017-11-24T20:47:46.483Z,15.30
2017-11-24T20:50:13.603Z,16.13
2017-11-24T20:52:39.928Z,16.40
2017-11-24T20:55:06.258Z,13.30
2017-11-24T20:57:32.595Z,14.40
2017-11-24T20:59:59.119Z,14.97
2017-11-24T21:02:25.524Z,14.97
2017-11-24T21:04:52.054Z,15.40
2017-11-24T21:07:18.394Z,17.13
2017-11-24T21:09:44.971Z,19.00
2017-11-24T21:12:11.297Z,17.00
2017-11-24T21:14:37.621Z,18.43
2017-11-24T21:17:04.003Z,15.57
2017-11-24T21:19:30.415Z,18.43
2017-11-24T21:21:57.600Z,17.43
2017-11-24T21:24:23.931Z,17.10
2017-11-24T21:26:50.313Z,15.40
2017-11-24T21:29:17.413Z,16.30
2017-11-24T21:31:43.654Z,15.90
2017-11-24T21:34:09.959Z,18.30
2017-11-24T21:36:36.407Z,17.17
2017-11-24T21:39:02.772Z,17.37
2017-11-24T21:41:29.145Z,17.87
2017-11-24T21:43:56.207Z,13.93
2017-11-24T21:46:22.516Z,15.83
2017-11-24T21:48:49.620Z,18.70
2017-11-24T21:51:15.963Z,15.53
2017-11-24T21:53:42.260Z,15.23
2017-11-24T21:56:08.614Z,14.37
2017-11-24T21:58:34.959Z,15.47
2017-11-24T22:01:01.310Z,12.40
2017-11-24T22:03:27.613Z,14.00
2017-11-24T22:05:54.039Z,13.87
2017-11-24T22:08:20.478Z,14.20
2017-11-24T22:10:48.043Z,14.30
2017-11-24T22:13:15.327Z,13.00
2017-11-24T22:15:41.831Z,11.93
2017-11-24T22:18:08.234Z,12.20
2017-11-24T22:20:34.546Z,10.87
2017-11-24T22:23:00.925Z,12.70
2017-11-24T22:25:27.234Z,11.60
2017-11-24T22:27:53.622Z,10.80
2017-11-24T22:30:20.704Z,10.43
2017-11-24T22:32:47.011Z,12.73
2017-11-24T22:35:13.337Z,11.63
2017-11-24T22:37:39.639Z,11.70
2017-11-24T22:40:06.093Z,9.87
2017-11-24T22:42:33.159Z,10.90
2017-11-24T22:44:59.536Z,10.67
2017-11-24T22:47:25.825Z,11.00
2017-11-24T22:49:52.133Z,10.67
2017-11-24T22:52:19.346Z,12.97
2017-11-24T22:54:53.830Z,10.83
2017-11-24T22:57:20.163Z,12.20
2017-11-24T22:59:46.639Z,10.57
2017-11-24T23:02:12.926Z,13.10
2017-11-24T23:04:39.279Z,11.10
2017-11-24T23:07:05.625Z,13.17
2017-11-24T23:09:31.941Z,13.57
2017-11-24T23:11:58.316Z,13.20
2017-11-24T23:14:25.408Z,10.67
2017-11-24T23:16:51.732Z,11.10
2017-11-24T23:19:18.045Z,13.70
2017-11-24T23:21:44.472Z,15.87
2017-11-24T23:24:11.543Z,15.10
2017-11-24T23:26:37.887Z,18.17
2017-11-24T23:29:04.377Z,19.80
2017-11-24T23:31:31.473Z,18.77
2017-11-24T23:33:57.834Z,20.90
2017-11-24T23:36:24.113Z,20.90
2017-11-24T23:38:50.551Z,22.27
2017-11-24T23:41:16.876Z,21.13
2017-11-24T23:43:43.238Z,20.77
2017-11-24T23:46:09.602Z,20.63
2017-11-24T23:48:36.694Z,22.07
2017-11-24T23:51:02.960Z,21.77
2017-11-24T23:53:29.250Z,20.27
2017-11-24T23:55:55.509Z,19.47
2017-11-24T23:58:21.803Z,18.50
